createdAt,value
2019-03-28T00:00:31.956Z,45.83
2019-03-28T00:03:02.797Z,46.25
2019-03-28T00:05:33.686Z,45.10
2019-03-28T00:08:04.531Z,45.88
2019-03-28T00:10:35.431Z,43.40
2019-03-28T00:13:06.675Z,45.20
2019-03-28T00:15:37.615Z,44.23
2019-03-28T00:18:08.524Z,44.67
2019-03-28T00:20:39.308Z,44.50
2019-03-28T00:23:23.292Z,43.70
2019-03-28T00:25:55.193Z,43.50
2019-03-28T00:28:26.024Z,42.30
2019-03-28T00:30:59.120Z,44.10
2019-03-28T00:33:29.879Z,42.85
2019-03-28T00:36:00.698Z,43.50
2019-03-28T00:38:31.493Z,42.93
2019-03-28T00:41:02.252Z,42.27
2019-03-28T00:43:33.103Z,42.90
2019-03-28T00:46:03.925Z,43.33
2019-03-28T00:48:34.757Z,42.88
2019-03-28T00:51:05.570Z,40.70
2019-03-28T00:53:36.394Z,42.30
2019-03-28T00:56:07.249Z,40.80
2019-03-28T00:58:38.066Z,40.55
2019-03-28T01:01:08.836Z,40.70
2019-03-28T01:03:39.748Z,40.43
2019-03-28T01:06:10.588Z,37.95
2019-03-28T01:08:41.492Z,39.20
2019-03-28T01:11:12.332Z,39.38
2019-03-28T01:13:43.435Z,39.03
2019-03-28T01:16:14.285Z,36.28
2019-03-28T01:18:45.362Z,37.38
2019-03-28T01:21:16.454Z,38.25
2019-03-28T01:23:47.319Z,36.85
2019-03-28T01:26:18.355Z,37.05
2019-03-28T01:28:49.379Z,38.15
2019-03-28T01:31:20.218Z,36.85
2019-03-28T01:33:51.029Z,36.38
2019-03-28T01:36:21.893Z,35.75
2019-03-28T01:38:52.827Z,34.03
2019-03-28T01:41:23.651Z,35.78
2019-03-28T01:43:54.505Z,35.68
2019-03-28T01:46:25.312Z,35.23
2019-03-28T01:48:56.078Z,34.92
2019-03-28T01:51:26.910Z,33.83
2019-03-28T01:53:57.830Z,35.05
2019-03-28T01:56:28.616Z,34.65
2019-03-28T01:58:59.487Z,33.33
2019-03-28T02:01:30.401Z,34.00
2019-03-28T02:04:06.334Z,33.35
2019-03-28T02:06:37.255Z,34.45
2019-03-28T02:09:11.350Z,32.03
2019-03-28T02:11:42.197Z,33.80
2019-03-28T02:14:13.006Z,32.78
2019-03-28T02:16:43.820Z,31.07
2019-03-28T02:19:14.662Z,32.50
2019-03-28T02:21:45.825Z,31.05
2019-03-28T02:24:16.647Z,31.07
2019-03-28T02:26:47.515Z,30.95
2019-03-28T02:29:18.283Z,30.97
2019-03-28T02:31:49.116Z,30.70
2019-03-28T02:34:19.998Z,31.35
2019-03-28T02:36:50.828Z,29.75
2019-03-28T02:39:21.704Z,29.10
2019-03-28T02:41:52.482Z,29.20
2019-03-28T02:44:23.355Z,28.40
2019-03-28T02:46:54.316Z,28.40
2019-03-28T02:49:25.102Z,27.75
2019-03-28T02:51:55.991Z,26.70
2019-03-28T02:54:26.861Z,26.68
2019-03-28T02:56:57.869Z,26.80
2019-03-28T02:59:28.817Z,25.80
2019-03-28T03:01:59.676Z,27.27
2019-03-28T03:04:30.575Z,26.25
2019-03-28T03:07:02.480Z,26.33
2019-03-28T03:09:33.316Z,26.05
2019-03-28T03:12:04.384Z,25.65
2019-03-28T03:14:35.238Z,25.97
2019-03-28T03:17:06.031Z,25.17
2019-03-28T03:19:36.866Z,24.60
2019-03-28T03:22:07.690Z,24.90
2019-03-28T03:24:38.509Z,24.02
2019-03-28T03:27:09.320Z,25.52
2019-03-28T03:29:40.151Z,24.02
2019-03-28T03:32:11.034Z,23.83
2019-03-28T03:34:41.830Z,23.85
2019-03-28T03:37:12.684Z,24.90
2019-03-28T03:39:43.684Z,23.35
2019-03-28T03:42:14.448Z,23.92
2019-03-28T03:44:45.514Z,23.15
2019-03-28T03:47:16.315Z,22.73
2019-03-28T03:49:47.136Z,23.67
2019-03-28T03:52:17.930Z,22.27
2019-03-28T03:54:48.703Z,21.95
2019-03-28T03:57:19.469Z,22.37
2019-03-28T03:59:50.334Z,21.12
2019-03-28T04:02:21.104Z,21.82
2019-03-28T04:04:51.971Z,23.25
2019-03-28T04:07:22.720Z,21.70
2019-03-28T04:09:53.531Z,22.20
2019-03-28T04:12:24.366Z,20.68
2019-03-28T04:14:55.164Z,20.62
2019-03-28T04:17:25.936Z,20.88
2019-03-28T04:19:56.854Z,21.27
2019-03-28T04:22:27.611Z,20.90
2019-03-28T04:24:58.423Z,21.40
2019-03-28T04:27:30.316Z,20.62
2019-03-28T04:30:01.080Z,19.85
2019-03-28T04:32:31.967Z,19.87
2019-03-28T04:35:03.453Z,19.12
2019-03-28T04:37:35.239Z,18.40
2019-03-28T04:40:08.745Z,20.85
2019-03-28T04:42:39.874Z,18.98
2019-03-28T04:45:10.708Z,18.90
2019-03-28T04:47:41.512Z,18.77
2019-03-28T04:50:12.694Z,18.50
2019-03-28T04:52:43.515Z,19.50
2019-03-28T04:55:14.379Z,17.92
2019-03-28T04:57:45.198Z,19.05
2019-03-28T05:00:16.487Z,17.82
2019-03-28T05:02:48.446Z,17.60
2019-03-28T05:05:19.273Z,17.92
2019-03-28T05:07:50.045Z,17.73
2019-03-28T05:10:20.927Z,17.32
2019-03-28T05:12:51.707Z,16.10
2019-03-28T05:15:22.555Z,17.12
2019-03-28T05:17:53.320Z,16.35
2019-03-28T05:20:24.142Z,16.02
2019-03-28T05:22:54.991Z,16.00
2019-03-28T05:25:25.775Z,16.17
2019-03-28T05:27:57.280Z,15.88
2019-03-28T05:30:28.153Z,16.32
2019-03-28T05:32:59.007Z,16.00
2019-03-28T05:35:29.799Z,15.55
2019-03-28T05:38:00.656Z,15.75
2019-03-28T05:40:31.384Z,17.45
2019-03-28T05:43:02.210Z,17.62
2019-03-28T05:45:32.956Z,18.10
2019-03-28T05:48:03.781Z,18.62
2019-03-28T05:50:34.541Z,23.18
2019-03-28T05:53:05.369Z,19.00
2019-03-28T05:55:36.134Z,19.20
2019-03-28T05:58:09.422Z,22.63
2019-03-28T06:00:40.255Z,23.73
2019-03-28T06:03:11.146Z,21.33
2019-03-28T06:05:41.981Z,17.57
2019-03-28T06:08:12.700Z,20.80
2019-03-28T06:10:43.512Z,20.50
2019-03-28T06:13:14.361Z,21.90
2019-03-28T06:15:45.167Z,20.95
2019-03-28T06:18:15.977Z,20.45
2019-03-28T06:20:47.677Z,20.77
2019-03-28T06:23:18.794Z,19.37
2019-03-28T06:25:49.749Z,19.70
2019-03-28T06:28:21.691Z,19.05
2019-03-28T06:30:52.497Z,19.50
2019-03-28T06:33:23.556Z,31.10
2019-03-28T06:35:54.350Z,33.70
2019-03-28T06:38:25.470Z,43.15
2019-03-28T06:40:57.300Z,37.00
2019-03-28T06:43:28.147Z,34.50
2019-03-28T06:45:58.974Z,35.48
2019-03-28T06:48:29.802Z,31.68
2019-03-28T06:51:00.603Z,33.13
2019-03-28T06:53:31.387Z,37.28
2019-03-28T06:56:04.418Z,44.42
2019-03-28T06:58:35.160Z,36.42
2019-03-28T07:01:05.930Z,29.30
2019-03-28T07:03:36.723Z,27.35
2019-03-28T07:06:07.515Z,26.75
2019-03-28T07:08:38.280Z,26.90
2019-03-28T07:11:09.835Z,26.70
2019-03-28T07:13:40.695Z,28.95
2019-03-28T07:16:13.830Z,25.20
2019-03-28T07:18:45.667Z,20.27
2019-03-28T07:21:16.459Z,21.07
2019-03-28T07:23:47.314Z,24.85
2019-03-28T07:26:18.166Z,22.20
2019-03-28T07:28:48.980Z,20.12
2019-03-28T07:31:19.690Z,20.52
2019-03-28T07:33:50.635Z,19.70
2019-03-28T07:36:21.500Z,19.92
2019-03-28T07:38:52.396Z,20.57
2019-03-28T07:41:23.347Z,20.30
2019-03-28T07:43:54.138Z,21.73
2019-03-28T07:46:24.949Z,20.82
2019-03-28T07:48:55.865Z,19.85
2019-03-28T07:51:27.619Z,19.60
2019-03-28T07:53:58.415Z,18.57
2019-03-28T07:56:29.280Z,19.80
2019-03-28T07:59:00.176Z,18.82
2019-03-28T08:01:34.913Z,17.52
2019-03-28T08:04:05.808Z,19.25
2019-03-28T08:06:49.115Z,19.75
2019-03-28T08:09:10.566Z,19.30
2019-03-28T08:11:41.308Z,17.87
2019-03-28T08:14:12.061Z,17.42
2019-03-28T08:16:43.007Z,19.45
2019-03-28T08:19:13.880Z,18.42
2019-03-28T08:21:44.705Z,18.10
2019-03-28T08:24:15.549Z,16.52
2019-03-28T08:26:46.383Z,17.65
2019-03-28T08:29:17.165Z,17.73
2019-03-28T08:31:49.161Z,17.52
2019-03-28T08:34:19.962Z,16.42
2019-03-28T08:36:50.757Z,17.02
2019-03-28T08:39:21.918Z,17.65
2019-03-28T08:41:52.725Z,16.75
2019-03-28T08:44:24.714Z,16.48
2019-03-28T08:46:55.511Z,15.65
2019-03-28T08:49:26.580Z,16.35
2019-03-28T08:51:57.410Z,15.05
2019-03-28T08:54:28.299Z,15.53
2019-03-28T08:57:00.719Z,18.02
2019-03-28T09:02:29.425Z,16.10
2019-03-28T09:05:00.396Z,16.65
2019-03-28T09:07:31.261Z,14.00
2019-03-28T09:10:02.371Z,15.25
2019-03-28T09:12:35.159Z,13.70
2019-03-28T09:15:06.298Z,14.80
2019-03-28T09:17:37.178Z,15.00
2019-03-28T09:20:08.124Z,14.35
2019-03-28T09:22:41.100Z,14.18
2019-03-28T09:25:12.458Z,13.85
2019-03-28T09:27:43.378Z,13.98
2019-03-28T09:30:15.858Z,13.30
2019-03-28T09:32:46.711Z,13.68
2019-03-28T09:35:28.670Z,13.22
2019-03-28T09:37:59.442Z,12.80
2019-03-28T09:40:30.573Z,13.00
2019-03-28T09:43:01.464Z,14.55
2019-03-28T09:45:32.230Z,13.10
2019-03-28T09:48:04.100Z,13.28
2019-03-28T09:50:34.900Z,12.90
2019-03-28T09:53:05.643Z,13.18
2019-03-28T09:55:36.446Z,13.38
2019-03-28T09:58:07.679Z,11.75
2019-03-28T10:00:38.485Z,14.45
2019-03-28T10:03:09.232Z,12.03
2019-03-28T10:05:40.037Z,12.30
2019-03-28T10:08:10.831Z,12.65
2019-03-28T10:10:41.631Z,12.15
2019-03-28T10:13:12.377Z,11.65
2019-03-28T10:15:43.935Z,11.78
2019-03-28T10:18:14.826Z,11.75
2019-03-28T10:20:46.477Z,11.78
2019-03-28T10:23:17.245Z,13.05
2019-03-28T10:25:48.244Z,11.90
2019-03-28T10:28:19.070Z,11.60
2019-03-28T10:30:49.893Z,11.40
2019-03-28T10:33:20.707Z,12.30
2019-03-28T10:35:51.497Z,12.18
2019-03-28T10:38:22.256Z,10.58
2019-03-28T10:40:53.039Z,11.28
2019-03-28T10:43:23.863Z,11.68
2019-03-28T10:45:54.643Z,11.28
2019-03-28T10:48:25.460Z,10.72
2019-03-28T10:50:56.359Z,10.68
2019-03-28T10:53:30.123Z,11.40
2019-03-28T10:56:00.861Z,10.88
2019-03-28T10:58:34.829Z,10.50
2019-03-28T11:01:04.070Z,12.78
2019-03-28T11:03:34.953Z,10.68
2019-03-28T11:06:06.528Z,10.32
2019-03-28T11:08:37.395Z,9.70
2019-03-28T11:11:08.173Z,10.75
2019-03-28T11:13:38.998Z,10.30
2019-03-28T11:16:09.770Z,10.50
2019-03-28T11:18:40.576Z,9.85
2019-03-28T11:21:11.356Z,9.80
2019-03-28T11:23:42.167Z,10.93
2019-03-28T11:26:13.033Z,10.15
2019-03-28T11:28:44.915Z,9.33
2019-03-28T11:31:15.637Z,9.68
2019-03-28T11:33:46.406Z,10.48
2019-03-28T11:36:17.241Z,9.30
2019-03-28T11:38:48.007Z,9.75
2019-03-28T11:41:18.800Z,10.30
2019-03-28T11:43:49.675Z,9.85
2019-03-28T11:46:20.445Z,8.93
2019-03-28T11:48:51.274Z,9.70
2019-03-28T11:51:22.075Z,8.63
2019-03-28T11:53:52.950Z,9.23
2019-03-28T11:56:26.002Z,8.45
2019-03-28T11:58:56.876Z,9.00
2019-03-28T12:01:28.033Z,9.48
2019-03-28T12:03:59.420Z,8.75
2019-03-28T12:06:30.242Z,8.53
2019-03-28T12:09:01.044Z,9.03
2019-03-28T12:11:31.856Z,8.93
2019-03-28T12:14:02.766Z,8.53
2019-03-28T12:16:33.677Z,8.65
2019-03-28T12:19:04.521Z,8.65
2019-03-28T12:21:35.287Z,8.20
2019-03-28T12:24:06.068Z,8.45
2019-03-28T12:26:36.793Z,8.50
2019-03-28T12:29:07.627Z,9.43
2019-03-28T12:31:38.441Z,8.18
2019-03-28T12:34:09.251Z,7.67
2019-03-28T12:36:40.097Z,8.08
2019-03-28T12:39:10.968Z,7.53
2019-03-28T12:41:41.761Z,7.60
2019-03-28T12:44:12.577Z,8.20
2019-03-28T12:46:43.380Z,7.50
2019-03-28T12:49:14.238Z,7.40
2019-03-28T12:51:45.002Z,7.78
2019-03-28T12:54:15.790Z,7.20
2019-03-28T12:56:46.912Z,7.62
2019-03-28T12:59:17.668Z,8.18
2019-03-28T13:01:48.551Z,7.92
2019-03-28T13:04:19.739Z,8.08
2019-03-28T13:06:50.624Z,6.90
2019-03-28T13:09:21.374Z,7.08
2019-03-28T13:11:52.144Z,6.97
2019-03-28T13:14:22.969Z,7.78
2019-03-28T13:16:55.154Z,9.38
2019-03-28T13:19:25.922Z,7.58
2019-03-28T13:21:56.710Z,6.83
2019-03-28T13:27:18.078Z,8.60
2019-03-28T13:29:48.875Z,6.22
2019-03-28T13:32:19.666Z,6.20
2019-03-28T13:34:50.456Z,6.53
2019-03-28T13:37:21.218Z,7.87
2019-03-28T13:39:52.092Z,7.55
2019-03-28T13:42:23.562Z,6.17
2019-03-28T13:44:54.395Z,7.10
2019-03-28T13:47:25.118Z,6.78
2019-03-28T13:49:55.894Z,8.05
2019-03-28T13:52:26.713Z,7.85
2019-03-28T13:54:57.491Z,7.85
2019-03-28T13:57:28.321Z,6.10
2019-03-28T13:59:59.109Z,6.72
2019-03-28T14:02:31.022Z,6.05
2019-03-28T14:05:01.891Z,7.22
2019-03-28T14:07:32.802Z,6.03
2019-03-28T14:10:03.660Z,8.45
2019-03-28T14:12:35.543Z,6.28
2019-03-28T14:15:06.401Z,5.40
2019-03-28T14:17:37.247Z,5.58
2019-03-28T14:20:08.031Z,6.37
2019-03-28T14:22:38.849Z,5.97
2019-03-28T14:25:09.695Z,5.70
2019-03-28T14:27:40.564Z,6.97
2019-03-28T14:30:12.620Z,6.65
2019-03-28T14:32:53.185Z,5.35
2019-03-28T14:35:15.777Z,6.25
2019-03-28T14:37:46.510Z,5.33
2019-03-28T14:40:17.308Z,5.92
2019-03-28T14:42:48.102Z,5.95
2019-03-28T14:45:18.868Z,5.55
2019-03-28T14:47:49.622Z,5.55
2019-03-28T14:50:42.268Z,6.30
2019-03-28T14:53:13.017Z,5.30
2019-03-28T14:55:43.861Z,5.35
2019-03-28T14:58:14.597Z,6.47
2019-03-28T15:00:49.700Z,5.00
2019-03-28T15:03:26.992Z,5.25
2019-03-28T15:05:55.846Z,4.92
2019-03-28T15:08:27.656Z,5.33
2019-03-28T15:10:58.488Z,5.55
2019-03-28T15:13:29.330Z,5.50
2019-03-28T15:16:02.465Z,5.28
2019-03-28T15:18:33.277Z,5.53
2019-03-28T15:21:04.023Z,4.42
2019-03-28T15:23:35.162Z,5.65
2019-03-28T15:26:05.918Z,4.87
2019-03-28T15:28:36.771Z,5.05
2019-03-28T15:31:07.518Z,5.50
2019-03-28T15:33:40.016Z,5.17
2019-03-28T15:36:10.903Z,5.22
2019-03-28T15:38:41.789Z,5.62
2019-03-28T15:41:12.838Z,5.35
2019-03-28T15:43:43.618Z,5.17
2019-03-28T15:46:14.385Z,4.70
2019-03-28T15:48:45.333Z,4.72
2019-03-28T15:51:16.113Z,4.80
2019-03-28T15:53:46.985Z,4.22
2019-03-28T15:56:18.779Z,4.25
2019-03-28T15:58:49.626Z,4.87
2019-03-28T16:01:20.389Z,4.08
2019-03-28T16:03:53.162Z,4.55
2019-03-28T16:06:24.033Z,5.08
2019-03-28T16:08:55.282Z,4.95
2019-03-28T16:11:26.165Z,4.10
2019-03-28T16:13:56.960Z,4.17
2019-03-28T16:16:28.571Z,4.45
2019-03-28T16:19:01.800Z,4.92
2019-03-28T16:21:32.787Z,4.37
2019-03-28T16:24:04.028Z,4.30
2019-03-28T16:26:34.799Z,5.05
2019-03-28T16:29:05.551Z,4.35
2019-03-28T16:31:36.371Z,4.15
2019-03-28T16:34:07.677Z,4.10
2019-03-28T16:36:38.502Z,4.50
2019-03-28T16:39:09.371Z,4.15
2019-03-28T16:41:41.771Z,4.00
2019-03-28T16:44:12.504Z,4.30
2019-03-28T16:46:43.369Z,4.08
2019-03-28T16:49:14.599Z,3.85
2019-03-28T16:51:45.407Z,4.10
2019-03-28T16:54:16.279Z,4.65
2019-03-28T16:56:48.164Z,4.37
2019-03-28T16:59:18.948Z,4.50
2019-03-28T17:01:49.839Z,4.83
2019-03-28T17:04:21.413Z,4.92
2019-03-28T17:06:53.209Z,4.65
2019-03-28T17:09:24.123Z,4.92
2019-03-28T17:11:54.836Z,4.30
2019-03-28T17:14:26.300Z,3.72
2019-03-28T17:16:57.231Z,4.28
2019-03-28T17:19:28.089Z,4.20
2019-03-28T17:21:58.844Z,3.92
2019-03-28T17:24:29.664Z,4.95
2019-03-28T17:27:00.388Z,4.03
2019-03-28T17:29:31.289Z,3.55
2019-03-28T17:32:02.452Z,4.65
2019-03-28T17:34:36.225Z,4.30
2019-03-28T17:37:06.095Z,5.08
2019-03-28T17:39:36.997Z,3.77
2019-03-28T17:42:07.836Z,4.05
2019-03-28T17:44:38.583Z,4.10
2019-03-28T17:47:10.624Z,4.97
2019-03-28T17:49:42.028Z,4.08
2019-03-28T17:52:13.850Z,3.85
2019-03-28T17:54:44.579Z,4.20
2019-03-28T17:57:15.438Z,3.75
2019-03-28T17:59:46.364Z,3.62
2019-03-28T18:02:18.133Z,3.85
2019-03-28T18:04:48.970Z,4.28
2019-03-28T18:07:19.707Z,4.15
2019-03-28T18:09:50.536Z,3.67
2019-03-28T18:12:21.330Z,3.70
2019-03-28T18:14:52.143Z,4.42
2019-03-28T18:17:22.935Z,3.72
2019-03-28T18:19:53.753Z,3.50
2019-03-28T18:22:24.463Z,3.30
2019-03-28T18:24:55.246Z,3.30
2019-03-28T18:27:26.116Z,3.85
2019-03-28T18:29:57.234Z,3.77
2019-03-28T18:32:28.216Z,3.10
2019-03-28T18:35:05.044Z,3.67
2019-03-28T18:37:31.561Z,3.50
2019-03-28T18:40:04.210Z,4.45
2019-03-28T18:42:36.167Z,3.70
2019-03-28T18:45:07.910Z,4.65
2019-03-28T18:47:38.947Z,3.62
2019-03-28T18:50:09.859Z,4.05
2019-03-28T18:52:40.699Z,4.00
2019-03-28T18:55:11.426Z,4.37
2019-03-28T18:57:42.169Z,3.67
2019-03-28T19:00:12.976Z,3.27
2019-03-28T19:02:43.836Z,3.75
2019-03-28T19:05:20.151Z,5.35
2019-03-28T19:07:47.089Z,4.45
2019-03-28T19:10:17.861Z,8.03
2019-03-28T19:12:48.757Z,12.65
2019-03-28T19:15:19.485Z,11.97
2019-03-28T19:17:51.580Z,15.93
2019-03-28T19:20:22.337Z,11.38
2019-03-28T19:22:53.264Z,17.17
2019-03-28T19:25:24.124Z,11.63
2019-03-28T19:27:54.979Z,11.85
2019-03-28T19:30:33.972Z,11.48
2019-03-28T19:33:06.852Z,9.93
2019-03-28T19:35:37.468Z,13.62
2019-03-28T19:38:09.195Z,14.18
2019-03-28T19:40:41.375Z,16.82
2019-03-28T19:43:20.507Z,16.00
2019-03-28T19:45:44.934Z,14.10
2019-03-28T19:48:15.720Z,15.68
2019-03-28T19:50:46.493Z,14.63
2019-03-28T19:53:17.982Z,20.57
2019-03-28T19:55:49.027Z,26.02
2019-03-28T19:58:19.721Z,20.02
2019-03-28T20:00:50.477Z,19.35
2019-03-28T20:03:23.266Z,23.75
2019-03-28T20:05:53.762Z,20.27
2019-03-28T20:08:26.314Z,21.65
2019-03-28T20:10:57.206Z,20.43
2019-03-28T20:13:30.785Z,19.37
2019-03-28T20:16:00.653Z,21.62
2019-03-28T20:18:31.498Z,21.05
2019-03-28T20:21:02.410Z,22.77
2019-03-28T20:23:35.574Z,21.95
2019-03-28T20:26:05.752Z,20.52
2019-03-28T20:28:36.552Z,20.88
2019-03-28T20:31:07.444Z,23.15
2019-03-28T20:33:38.324Z,20.25
2019-03-28T20:36:35.572Z,23.75
2019-03-28T20:38:41.780Z,26.60
2019-03-28T20:41:12.635Z,22.65
2019-03-28T20:43:44.665Z,22.80
2019-03-28T20:46:15.436Z,22.45
2019-03-28T20:48:46.258Z,23.77
2019-03-28T20:51:17.071Z,23.30
2019-03-28T20:53:47.883Z,24.05
2019-03-28T20:56:18.775Z,21.87
2019-03-28T20:58:49.598Z,26.45
2019-03-28T21:01:20.467Z,24.52
2019-03-28T21:03:51.284Z,24.77
2019-03-28T21:06:22.127Z,23.27
2019-03-28T21:08:53.002Z,25.40
2019-03-28T21:11:23.778Z,23.12
2019-03-28T21:13:54.564Z,23.12
2019-03-28T21:16:25.571Z,25.57
2019-03-28T21:18:56.455Z,24.75
2019-03-28T21:21:27.217Z,22.98
2019-03-28T21:23:58.373Z,24.12
2019-03-28T21:26:29.223Z,22.42
2019-03-28T21:29:00.055Z,23.20
2019-03-28T21:31:30.953Z,22.67
2019-03-28T21:34:01.759Z,23.55
2019-03-28T21:36:33.651Z,23.85
2019-03-28T21:39:06.278Z,25.80
2019-03-28T21:41:37.398Z,34.25
2019-03-28T21:44:09.732Z,29.65
2019-03-28T21:46:40.522Z,29.00
2019-03-28T21:49:11.402Z,27.90
2019-03-28T21:51:42.203Z,28.62
2019-03-28T21:54:13.047Z,26.62
2019-03-28T21:56:43.862Z,30.20
2019-03-28T21:59:14.707Z,28.20
2019-03-28T22:01:46.456Z,28.42
2019-03-28T22:04:17.245Z,51.13
2019-03-28T22:06:49.007Z,60.52
2019-03-28T22:09:19.875Z,58.85
2019-03-28T22:11:51.623Z,61.08
2019-03-28T22:14:22.393Z,60.20
2019-03-28T22:16:53.284Z,51.80
2019-03-28T22:19:24.027Z,49.45
2019-03-28T22:21:54.821Z,50.33
2019-03-28T22:24:25.639Z,48.28
2019-03-28T22:26:56.416Z,49.13
2019-03-28T22:29:27.188Z,47.85
2019-03-28T22:31:58.007Z,45.38
2019-03-28T22:34:28.777Z,45.70
2019-03-28T22:37:03.438Z,44.88
2019-03-28T22:39:32.166Z,43.58
2019-03-28T22:42:03.192Z,42.80
2019-03-28T22:44:34.160Z,43.80
2019-03-28T22:47:05.940Z,44.70
2019-03-28T22:49:36.909Z,44.80
2019-03-28T22:52:07.782Z,43.10
2019-03-28T22:54:38.566Z,43.75
2019-03-28T22:57:09.313Z,42.40
2019-03-28T22:59:40.136Z,42.00
2019-03-28T23:02:10.941Z,45.10
2019-03-28T23:04:41.802Z,42.35
2019-03-28T23:07:12.589Z,41.68
2019-03-28T23:09:43.415Z,42.33
2019-03-28T23:12:14.185Z,41.95
2019-03-28T23:14:45.061Z,40.35
2019-03-28T23:17:15.848Z,41.10
2019-03-28T23:19:46.690Z,38.95
2019-03-28T23:22:17.442Z,40.08
2019-03-28T23:24:48.261Z,40.03
2019-03-28T23:27:19.105Z,41.37
2019-03-28T23:29:50.040Z,40.23
2019-03-28T23:32:20.833Z,39.08
2019-03-28T23:34:51.627Z,38.15
2019-03-28T23:37:25.049Z,37.93
2019-03-28T23:39:55.077Z,37.90
2019-03-28T23:42:25.923Z,38.17
2019-03-28T23:44:56.790Z,37.63
2019-03-28T23:47:27.552Z,39.23
2019-03-28T23:49:58.412Z,37.03
2019-03-28T23:52:29.171Z,37.38
2019-03-28T23:55:00.008Z,36.20
2019-03-28T23:57:30.873Z,37.17
